createdAt,value
2023-03-01T01:34:50.477Z,63.97
2023-03-01T01:37:32.666Z,67.55
2023-03-01T01:43:22.388Z,62.23
2023-03-01T01:46:10.237Z,61.78
2023-03-01T01:48:57.510Z,62.20
2023-03-01T01:51:48.221Z,64.15
2023-03-01T01:57:20.350Z,57.15
2023-03-01T02:40:53.378Z,58.05
2023-03-01T02:43:44.298Z,56.30
2023-03-01T02:46:32.588Z,55.80
2023-03-01T03:14:26.081Z,52.03
2023-03-01T03:20:21.260Z,52.05
2023-03-01T03:32:23.786Z,67.85
2023-03-01T03:38:08.053Z,55.58
2023-03-01T03:43:55.238Z,59.23
2023-03-01T03:46:34.312Z,59.97
2023-03-01T03:49:17.703Z,56.13
2023-03-01T03:51:56.994Z,55.15
2023-03-01T03:54:35.746Z,65.35
2023-03-01T04:40:00.417Z,52.30
2023-03-01T05:03:56.693Z,58.33
2023-03-01T05:12:48.287Z,58.75
2023-03-01T05:15:26.981Z,55.08
2023-03-01T05:18:04.892Z,57.92
2023-03-01T05:20:46.577Z,61.55
2023-03-01T05:23:21.707Z,59.63
2023-03-01T05:25:59.408Z,50.05
2023-03-01T05:28:35.723Z,50.35
2023-03-01T05:31:15.984Z,55.05
2023-03-01T05:33:57.675Z,58.15
2023-03-01T05:36:39.001Z,57.08
2023-03-01T05:39:17.623Z,54.97
2023-03-01T05:41:57.483Z,46.58
2023-03-01T05:44:35.977Z,49.75
2023-03-01T05:50:11.865Z,55.33
2023-03-01T05:52:51.266Z,55.75
2023-03-01T05:55:29.107Z,54.83
2023-03-01T05:58:08.862Z,53.28
2023-03-01T06:00:45.524Z,48.05
2023-03-01T06:03:30.186Z,57.70
2023-03-01T06:06:11.427Z,51.78
2023-03-01T06:08:50.839Z,46.15
2023-03-01T06:11:29.116Z,58.17
2023-03-01T06:14:07.867Z,58.20
2023-03-01T06:16:44.601Z,59.40
2023-03-01T06:19:22.022Z,64.47
2023-03-01T06:22:00.319Z,65.53
2023-03-01T06:24:43.304Z,60.22
2023-03-01T06:30:20.734Z,61.83
2023-03-01T06:33:04.329Z,61.67
2023-03-01T06:35:42.373Z,60.53
2023-03-01T06:38:44.154Z,56.70
2023-03-01T06:41:32.533Z,55.55
2023-03-01T06:44:13.351Z,54.70
2023-03-01T06:46:50.174Z,53.10
2023-03-01T06:49:25.231Z,52.23
2023-03-01T06:52:04.212Z,52.53
2023-03-01T06:54:42.083Z,52.35
2023-03-01T06:57:17.036Z,49.85
2023-03-01T07:00:01.160Z,48.13
2023-03-01T07:02:36.541Z,47.15
2023-03-01T07:05:19.853Z,48.10
2023-03-01T07:08:02.317Z,46.33
2023-03-01T07:10:41.494Z,52.47
2023-03-01T07:13:18.824Z,51.30
2023-03-01T07:15:58.723Z,67.70
2023-03-01T07:18:39.076Z,64.15
2023-03-01T07:21:18.220Z,52.30
2023-03-01T07:23:52.708Z,48.50
2023-03-01T07:26:32.113Z,47.75
2023-03-01T07:29:12.327Z,48.58
2023-03-01T07:32:01.228Z,48.58
2023-03-01T07:34:36.473Z,46.95
2023-03-01T07:43:04.423Z,42.33
2023-03-01T07:45:53.134Z,42.60
2023-03-01T07:51:28.324Z,45.90
2023-03-01T07:54:14.477Z,46.05
2023-03-01T07:57:20.106Z,49.20
2023-03-01T08:00:04.646Z,46.50
2023-03-01T08:03:05.882Z,46.90
2023-03-01T08:05:47.005Z,44.20
2023-03-01T08:08:37.463Z,44.35
2023-03-01T08:11:16.331Z,42.15
2023-03-01T08:13:59.977Z,43.90
2023-03-01T08:16:51.790Z,46.43
2023-03-01T08:19:30.427Z,47.15
2023-03-01T08:22:08.736Z,53.38
2023-03-01T08:24:47.974Z,63.17
2023-03-01T08:27:28.692Z,57.10
2023-03-01T08:36:26.676Z,53.20
2023-03-01T08:39:09.180Z,49.03
2023-03-01T08:41:52.030Z,44.67
2023-03-01T08:44:29.583Z,39.90
2023-03-01T08:47:10.913Z,36.37
2023-03-01T08:49:46.919Z,36.78
2023-03-01T08:55:16.999Z,36.33
2023-03-01T08:58:00.139Z,33.85
2023-03-01T09:00:38.249Z,26.63
2023-03-01T09:03:20.595Z,21.60
2023-03-01T09:05:57.103Z,18.08
2023-03-01T09:08:33.002Z,21.10
2023-03-01T09:11:08.779Z,15.75
2023-03-01T09:16:42.094Z,19.90
2023-03-01T09:22:09.083Z,16.85
2023-03-01T09:24:45.602Z,16.98
2023-03-01T09:27:21.093Z,18.23
2023-03-01T09:30:01.438Z,19.23
2023-03-01T09:32:38.914Z,18.93
2023-03-01T09:35:13.461Z,18.75
2023-03-01T09:37:48.389Z,18.25
2023-03-01T09:40:26.244Z,17.20
2023-03-01T09:45:40.358Z,19.13
2023-03-01T09:48:18.053Z,17.35
2023-03-01T09:50:53.704Z,17.95
2023-03-01T09:56:06.835Z,17.65
2023-03-01T09:58:46.592Z,17.08
2023-03-01T10:01:36.025Z,16.75
2023-03-01T10:04:20.373Z,17.48
2023-03-01T10:07:00.822Z,16.83
2023-03-01T10:09:37.125Z,17.70
2023-03-01T10:12:15.929Z,17.52
2023-03-01T10:14:56.446Z,17.23
2023-03-01T10:17:38.693Z,16.65
2023-03-01T10:20:34.802Z,21.33
2023-03-01T10:23:09.743Z,21.03
2023-03-01T10:28:29.721Z,19.77
2023-03-01T10:31:10.162Z,20.55
2023-03-01T10:33:50.624Z,18.80
2023-03-01T10:36:27.236Z,18.90
2023-03-01T10:39:04.577Z,22.35
2023-03-01T10:41:41.955Z,22.33
2023-03-01T10:44:26.659Z,16.00
2023-03-01T10:47:05.356Z,19.65
2023-03-01T10:49:48.453Z,19.00
2023-03-01T10:52:27.249Z,16.73
2023-03-01T10:55:03.245Z,17.40
2023-03-01T11:00:26.309Z,15.90
2023-03-01T11:02:57.703Z,16.38
2023-03-01T11:05:39.203Z,15.55
2023-03-01T11:08:17.279Z,17.45
2023-03-01T11:10:55.571Z,16.80
2023-03-01T11:13:32.031Z,16.38
2023-03-01T11:16:12.406Z,15.43
2023-03-01T11:18:48.581Z,16.00
2023-03-01T11:21:29.828Z,15.80
2023-03-01T11:24:07.115Z,16.50
2023-03-01T11:26:48.428Z,17.20
2023-03-01T11:29:37.316Z,16.50
2023-03-01T11:32:21.253Z,17.92
2023-03-01T11:34:59.487Z,14.60
2023-03-01T11:37:42.566Z,15.20
2023-03-01T11:40:28.747Z,13.10
2023-03-01T11:43:11.502Z,12.20
2023-03-01T11:45:55.074Z,10.88
2023-03-01T11:48:52.024Z,11.32
2023-03-01T11:51:30.930Z,11.10
2023-03-01T11:54:14.740Z,10.60
2023-03-01T11:56:51.721Z,10.45
2023-03-01T11:59:38.876Z,9.85
2023-03-01T12:02:37.119Z,8.10
2023-03-01T12:05:18.166Z,7.40
2023-03-01T12:07:57.732Z,6.15
2023-03-01T12:10:38.505Z,8.15
2023-03-01T12:13:28.291Z,7.88
2023-03-01T12:16:13.795Z,8.00
2023-03-01T12:19:10.329Z,9.45
2023-03-01T12:21:52.154Z,9.00
2023-03-01T12:24:53.135Z,10.45
2023-03-01T12:27:44.546Z,10.48
2023-03-01T12:30:17.765Z,10.65
2023-03-01T12:33:02.003Z,12.30
2023-03-01T12:36:11.854Z,12.65
2023-03-01T12:38:56.993Z,12.02
2023-03-01T12:41:35.117Z,14.30
2023-03-01T12:44:22.853Z,11.30
2023-03-01T12:47:10.605Z,11.07
2023-03-01T12:49:56.402Z,10.52
2023-03-01T12:52:42.217Z,8.07
2023-03-01T12:55:24.475Z,9.35
2023-03-01T12:58:11.354Z,9.98
2023-03-01T13:01:16.609Z,9.40
2023-03-01T13:04:05.086Z,9.15
2023-03-01T13:06:44.072Z,9.15
2023-03-01T13:09:30.247Z,10.70
2023-03-01T13:14:58.336Z,10.77
2023-03-01T13:17:48.273Z,9.32
2023-03-01T13:20:19.727Z,9.32
2023-03-01T13:23:07.170Z,9.82
2023-03-01T13:26:06.885Z,11.38
2023-03-01T13:29:03.726Z,11.20
2023-03-01T13:32:06.475Z,11.15
2023-03-01T13:34:55.308Z,11.55
2023-03-01T13:37:43.560Z,11.43
2023-03-01T13:40:56.329Z,9.05
2023-03-01T13:43:35.258Z,10.77
2023-03-01T13:46:16.125Z,11.45
2023-03-01T13:48:54.945Z,12.35
2023-03-01T13:51:37.841Z,11.35
2023-03-01T13:54:20.589Z,12.00
2023-03-01T13:57:01.692Z,12.37
2023-03-01T13:59:36.863Z,11.57
2023-03-01T14:02:21.059Z,11.55
2023-03-01T14:05:01.960Z,11.55
2023-03-01T14:07:45.171Z,12.20
2023-03-01T14:10:23.004Z,11.48
2023-03-01T14:13:11.437Z,12.30
2023-03-01T14:15:58.595Z,11.60
2023-03-01T14:18:38.203Z,12.03
2023-03-01T14:21:12.136Z,13.07
2023-03-01T14:23:56.200Z,11.30
2023-03-01T14:26:36.449Z,11.50
2023-03-01T14:29:29.683Z,12.75
2023-03-01T14:32:05.279Z,12.93
2023-03-01T14:34:41.785Z,12.50
2023-03-01T14:37:26.438Z,12.40
2023-03-01T14:40:26.504Z,13.10
2023-03-01T14:43:06.304Z,11.75
2023-03-01T14:45:41.263Z,12.45
2023-03-01T14:48:23.635Z,13.40
2023-03-01T14:51:01.627Z,11.65
2023-03-01T14:53:50.997Z,13.95
2023-03-01T14:56:33.269Z,14.25
2023-03-01T14:59:09.278Z,13.48
2023-03-01T15:01:47.164Z,12.52
2023-03-01T15:04:25.219Z,13.98
2023-03-01T15:07:06.464Z,12.73
2023-03-01T15:09:42.667Z,11.55
2023-03-01T15:15:37.580Z,12.63
2023-03-01T15:18:20.530Z,12.05
2023-03-01T15:20:56.846Z,13.30
2023-03-01T15:23:36.142Z,10.73
2023-03-01T15:26:26.053Z,12.57
2023-03-01T15:29:08.066Z,11.03
2023-03-01T15:31:53.556Z,12.18
2023-03-01T15:34:33.613Z,11.97
2023-03-01T15:37:45.630Z,13.60
2023-03-01T15:40:26.222Z,16.57
2023-03-01T15:43:07.422Z,15.48
2023-03-01T15:45:47.128Z,14.38
2023-03-01T15:48:36.096Z,14.90
2023-03-01T15:51:16.067Z,15.88
2023-03-01T15:53:59.641Z,16.75
2023-03-01T15:56:39.983Z,15.93
2023-03-01T15:59:21.289Z,17.55
2023-03-01T16:02:15.862Z,17.35
2023-03-01T16:04:57.828Z,17.45
2023-03-01T16:07:37.642Z,15.93
2023-03-01T16:10:34.555Z,16.38
2023-03-01T16:13:13.159Z,13.93
2023-03-01T16:15:54.666Z,14.77
2023-03-01T16:18:40.762Z,15.43
2023-03-01T16:21:22.454Z,17.40
2023-03-01T16:23:59.010Z,18.00
2023-03-01T16:29:35.809Z,21.10
2023-03-01T16:32:19.919Z,18.70
2023-03-01T16:35:00.722Z,21.60
2023-03-01T16:37:41.164Z,24.38
2023-03-01T16:40:43.461Z,27.50
2023-03-01T16:43:20.877Z,30.08
2023-03-01T16:45:56.136Z,29.50
2023-03-01T16:48:31.005Z,32.75
2023-03-01T16:51:09.737Z,40.83
2023-03-01T16:53:47.478Z,39.50
2023-03-01T16:56:24.425Z,34.38
2023-03-01T16:59:00.893Z,31.90
2023-03-01T17:01:39.656Z,29.95
2023-03-01T17:04:17.756Z,30.88
2023-03-01T17:06:57.872Z,27.67
2023-03-01T17:09:38.463Z,34.65
2023-03-01T17:12:14.828Z,37.05
2023-03-01T17:15:07.915Z,37.67
2023-03-01T17:17:44.846Z,34.97
2023-03-01T17:20:23.161Z,44.00
2023-03-01T17:23:02.682Z,40.20
2023-03-01T17:25:37.822Z,40.25
2023-03-01T17:28:15.786Z,40.45
2023-03-01T17:30:51.538Z,40.88
2023-03-01T17:33:25.911Z,40.20
2023-03-01T17:36:00.891Z,46.13
2023-03-01T17:38:39.669Z,43.25
2023-03-01T17:41:16.409Z,43.17
2023-03-01T17:43:51.611Z,40.28
2023-03-01T17:46:25.137Z,45.90
2023-03-01T17:49:00.947Z,42.13
2023-03-01T17:51:37.504Z,47.33
2023-03-01T17:54:17.069Z,54.33
2023-03-01T17:57:01.653Z,51.70
2023-03-01T18:02:19.504Z,56.10
2023-03-01T18:04:53.970Z,67.88
2023-03-01T18:07:40.284Z,69.78
2023-03-01T18:13:00.765Z,75.47
2023-03-01T18:15:36.882Z,93.80
2023-03-01T18:18:24.210Z,80.80
2023-03-01T18:33:13.581Z,76.10
2023-03-01T18:35:52.472Z,65.97
2023-03-01T18:38:41.553Z,68.43
2023-03-01T18:41:17.785Z,63.55
2023-03-01T18:44:00.551Z,67.57
2023-03-01T18:46:39.397Z,64.43
2023-03-01T18:49:21.646Z,58.85
2023-03-01T18:51:59.710Z,55.22
2023-03-01T18:54:40.251Z,53.72
2023-03-01T18:57:17.152Z,55.05
2023-03-01T18:59:55.634Z,54.53
2023-03-01T19:02:35.494Z,53.57
2023-03-01T19:05:17.960Z,49.78
2023-03-01T19:08:00.647Z,47.67
2023-03-01T19:10:40.536Z,51.70
2023-03-01T19:13:19.249Z,51.22
2023-03-01T19:15:56.392Z,50.35
2023-03-01T19:18:36.163Z,47.90
2023-03-01T19:24:07.216Z,53.80
2023-03-01T19:26:45.100Z,51.60
2023-03-01T19:29:27.488Z,50.05
2023-03-01T19:32:06.923Z,46.60
2023-03-01T19:37:43.892Z,42.30
2023-03-01T19:40:26.395Z,42.97
2023-03-01T19:46:07.868Z,38.60
2023-03-01T19:48:45.496Z,44.53
2023-03-01T19:51:22.105Z,47.15
2023-03-01T19:53:58.318Z,45.70
2023-03-01T20:02:05.820Z,42.85
2023-03-01T20:07:45.631Z,48.20
2023-03-01T20:10:24.495Z,44.90
2023-03-01T20:13:13.292Z,46.65
2023-03-01T20:15:53.641Z,43.90
2023-03-01T20:18:29.900Z,47.50
2023-03-01T20:21:14.652Z,48.70
2023-03-01T20:24:01.365Z,48.50
2023-03-01T20:26:42.765Z,40.55
2023-03-01T20:29:25.225Z,45.70
2023-03-01T20:32:05.562Z,50.17
2023-03-01T20:34:45.922Z,43.83
2023-03-01T20:37:22.789Z,45.05
2023-03-01T20:40:02.072Z,46.43
2023-03-01T20:42:43.619Z,48.03
2023-03-01T20:45:22.984Z,49.58
2023-03-01T20:48:08.899Z,50.28
2023-03-01T20:50:49.477Z,53.47
2023-03-01T20:53:27.306Z,50.28
2023-03-01T20:56:09.706Z,54.33
2023-03-01T20:58:45.120Z,54.80
2023-03-01T21:01:25.056Z,62.17
2023-03-01T21:04:01.293Z,59.88
2023-03-01T21:06:43.165Z,50.28
2023-03-01T21:09:19.042Z,50.40
2023-03-01T21:11:55.135Z,56.20
2023-03-01T21:14:42.907Z,61.20
2023-03-01T21:17:25.361Z,69.85
2023-03-01T21:20:02.288Z,66.15
2023-03-01T21:22:46.815Z,62.50
2023-03-01T21:25:25.620Z,62.28
2023-03-01T21:28:06.320Z,67.35
2023-03-01T21:30:41.359Z,85.63
2023-03-01T21:33:17.398Z,75.22
2023-03-01T21:38:40.204Z,68.80
2023-03-01T21:41:21.453Z,65.53
2023-03-01T21:44:01.051Z,80.65
2023-03-01T21:46:39.965Z,77.70
2023-03-01T21:49:19.308Z,73.97
2023-03-01T21:52:00.037Z,65.30
2023-03-01T21:54:44.100Z,78.20
2023-03-01T21:57:24.610Z,78.65
2023-03-01T22:00:04.859Z,84.05
2023-03-01T22:02:47.636Z,86.18
2023-03-01T22:05:23.722Z,81.10
2023-03-01T22:08:02.559Z,78.15
2023-03-01T22:10:49.843Z,75.97
2023-03-01T22:13:32.833Z,73.38
2023-03-01T22:16:11.705Z,61.53
2023-03-01T22:18:47.801Z,68.43
2023-03-01T22:21:24.913Z,67.22
2023-03-01T22:24:01.261Z,64.32
2023-03-01T22:26:42.198Z,67.38
2023-03-01T22:29:17.818Z,59.53
2023-03-01T22:31:56.924Z,67.10
2023-03-01T22:34:34.779Z,65.07
2023-03-01T22:37:14.309Z,70.23
2023-03-01T22:39:49.472Z,67.07
2023-03-01T22:42:29.502Z,65.05
2023-03-01T22:45:04.331Z,55.40
2023-03-01T22:47:40.965Z,67.45
2023-03-01T22:50:21.018Z,73.53
2023-03-01T22:52:59.482Z,78.00
2023-03-01T22:55:37.300Z,79.28
2023-03-01T22:58:17.827Z,73.18
2023-03-01T23:00:52.898Z,76.00
2023-03-01T23:03:28.625Z,79.05
2023-03-01T23:06:05.692Z,79.78
2023-03-01T23:08:48.164Z,91.40
2023-03-01T23:11:22.924Z,91.80
2023-03-01T23:14:01.341Z,80.75
2023-03-01T23:16:37.041Z,76.10
2023-03-01T23:19:12.881Z,74.18
2023-03-01T23:21:50.719Z,63.97
2023-03-01T23:24:32.236Z,77.60
2023-03-01T23:27:09.868Z,69.80
2023-03-01T23:29:49.194Z,75.55
2023-03-01T23:32:24.777Z,63.38
2023-03-01T23:37:37.134Z,70.10
2023-03-01T23:40:17.262Z,63.28
2023-03-01T23:42:52.465Z,76.18
2023-03-01T23:45:35.163Z,63.97
2023-03-01T23:48:15.571Z,68.40
2023-03-01T23:50:53.476Z,70.65
2023-03-01T23:53:31.700Z,71.88
2023-03-01T23:56:11.300Z,69.13
2023-03-01T23:58:51.345Z,68.55
